sensor_id;sensor_type;location;lat;lon;timestamp;pressure;altitude;pressure_sealevel;temperature;humidity
75051;BME280;63628;47.656;11.310;2023-01-28T00:00:46;95062.50;;;1.82;84.13
75051;BME280;63628;47.656;11.310;2023-01-28T00:03:13;95072.94;;;1.82;84.39
75051;BME280;63628;47.656;11.310;2023-01-28T00:05:41;95077.34;;;1.82;84.35
75051;BME280;63628;47.656;11.310;2023-01-28T00:08:07;95075.53;;;1.82;84.35
75051;BME280;63628;47.656;11.310;2023-01-28T00:10:36;95072.13;;;1.82;84.31
75051;BME280;63628;47.656;11.310;2023-01-28T00:13:05;95074.72;;;1.82;84.33
75051;BME280;63628;47.656;11.310;2023-01-28T00:15:31;95074.72;;;1.82;84.13
75051;BME280;63628;47.656;11.310;2023-01-28T00:17:58;95067.88;;;1.81;84.53
75051;BME280;63628;47.656;11.310;2023-01-28T00:20:24;95071.31;;;1.81;84.50
75051;BME280;63628;47.656;11.310;2023-01-28T00:22:51;95068.69;;;1.81;84.24
75051;BME280;63628;47.656;11.310;2023-01-28T00:25:17;95064.28;;;1.82;83.96
75051;BME280;63628;47.656;11.310;2023-01-28T00:27:46;95071.94;;;1.83;83.97
75051;BME280;63628;47.656;11.310;2023-01-28T00:30:13;95072.13;;;1.82;84.13
75051;BME280;63628;47.656;11.310;2023-01-28T00:32:39;95071.31;;;1.81;84.00
75051;BME280;63628;47.656;11.310;2023-01-28T00:35:08;95068.06;;;1.79;84.17
75051;BME280;63628;47.656;11.310;2023-01-28T00:37:35;95069.69;;;1.80;84.14
75051;BME280;63628;47.656;11.310;2023-01-28T00:40:04;95066.25;;;1.80;84.33
75051;BME280;63628;47.656;11.310;2023-01-28T00:42:30;95071.47;;;1.80;84.19
75051;BME280;63628;47.656;11.310;2023-01-28T00:44:59;95069.69;;;1.80;84.06
75051;BME280;63628;47.656;11.310;2023-01-28T00:47:25;95063.81;;;1.78;84.09
75051;BME280;63628;47.656;11.310;2023-01-28T00:49:52;95076.69;;;1.80;84.24
75051;BME280;63628;47.656;11.310;2023-01-28T00:52:18;95070.84;;;1.78;84.37
75051;BME280;63628;47.656;11.310;2023-01-28T00:54:45;95062.03;;;1.79;84.42
75051;BME280;63628;47.656;11.310;2023-01-28T00:57:11;95057.78;;;1.78;84.27
75051;BME280;63628;47.656;11.310;2023-01-28T00:59:38;95065.44;;;1.79;84.32
75051;BME280;63628;47.656;11.310;2023-01-28T01:02:06;95068.88;;;1.80;84.21
75051;BME280;63628;47.656;11.310;2023-01-28T01:04:38;95066.44;;;1.78;84.26
75051;BME280;63628;47.656;11.310;2023-01-28T01:07:04;95061.56;;;1.75;84.23
75051;BME280;63628;47.656;11.310;2023-01-28T01:09:31;95064.16;;;1.75;83.91
75051;BME280;63628;47.656;11.310;2023-01-28T01:11:58;95076.06;;;1.78;84.18
75051;BME280;63628;47.656;11.310;2023-01-28T01:14:25;95078.03;;;1.76;84.18
75051;BME280;63628;47.656;11.310;2023-01-28T01:16:51;95072.81;;;1.76;83.70
75051;BME280;63628;47.656;11.310;2023-01-28T01:19:19;95068.56;;;1.75;84.39
75051;BME280;63628;47.656;11.310;2023-01-28T01:21:46;95067.59;;;1.76;84.09
75051;BME280;63628;47.656;11.310;2023-01-28T01:24:15;95077.22;;;1.75;83.90
75051;BME280;63628;47.656;11.310;2023-01-28T01:26:42;95071.00;;;1.76;83.95
75051;BME280;63628;47.656;11.310;2023-01-28T01:29:09;95078.03;;;1.76;83.93
75051;BME280;63628;47.656;11.310;2023-01-28T01:31:35;95071.81;;;1.77;83.99
75051;BME280;63628;47.656;11.310;2023-01-28T01:34:02;95066.78;;;1.75;83.67
75051;BME280;63628;47.656;11.310;2023-01-28T01:36:30;95065.16;;;1.74;83.99
75051;BME280;63628;47.656;11.310;2023-01-28T01:38:56;95071.19;;;1.75;83.98
75051;BME280;63628;47.656;11.310;2023-01-28T01:41:29;95071.34;;;1.73;83.93
75051;BME280;63628;47.656;11.310;2023-01-28T01:43:58;95075.94;;;1.71;84.45
75051;BME280;63628;47.656;11.310;2023-01-28T01:46:31;95082.59;;;1.74;83.82
75051;BME280;63628;47.656;11.310;2023-01-28T01:49:05;95080.16;;;1.72;84.32
75051;BME280;63628;47.656;11.310;2023-01-28T01:51:36;95078.53;;;1.71;84.16
75051;BME280;63628;47.656;11.310;2023-01-28T01:54:03;95077.56;;;1.72;84.03
75051;BME280;63628;47.656;11.310;2023-01-28T01:56:32;95075.75;;;1.73;84.08
75051;BME280;63628;47.656;11.310;2023-01-28T01:59:00;95074.13;;;1.72;84.14
75051;BME280;63628;47.656;11.310;2023-01-28T02:01:29;95086.34;;;1.71;84.09
75051;BME280;63628;47.656;11.310;2023-01-28T02:03:59;95078.38;;;1.73;84.01
75051;BME280;63628;47.656;11.310;2023-01-28T02:06:29;95078.53;;;1.71;83.86
75051;BME280;63628;47.656;11.310;2023-01-28T02:08:58;95076.09;;;1.70;83.66
75051;BME280;63628;47.656;11.310;2023-01-28T02:11:26;95071.88;;;1.69;83.99
75051;BME280;63628;47.656;11.310;2023-01-28T02:13:57;95079.53;;;1.70;84.17
75051;BME280;63628;47.656;11.310;2023-01-28T02:16:25;95071.88;;;1.69;84.25
75051;BME280;63628;47.656;11.310;2023-01-28T02:18:53;95071.06;;;1.68;83.96
75051;BME280;63628;47.656;11.310;2023-01-28T02:21:59;95072.50;;;1.71;83.97
75051;BME280;63628;47.656;11.310;2023-01-28T02:24:49;95074.13;;;1.72;83.54
75051;BME280;63628;47.656;11.310;2023-01-28T02:27:27;95076.09;;;1.70;83.74
75051;BME280;63628;47.656;11.310;2023-01-28T02:30:02;95078.88;;;1.68;83.93
75051;BME280;63628;47.656;11.310;2023-01-28T02:32:35;95084.09;;;1.68;83.83
75051;BME280;63628;47.656;11.310;2023-01-28T02:38:38;95071.88;;;1.69;83.69
75051;BME280;63628;47.656;11.310;2023-01-28T02:41:10;95079.53;;;1.70;83.75
75051;BME280;63628;47.656;11.310;2023-01-28T02:43:40;95079.53;;;1.70;83.70
75051;BME280;63628;47.656;11.310;2023-01-28T02:46:14;95082.94;;;1.71;83.71
75051;BME280;63628;47.656;11.310;2023-01-28T02:49:04;95088.50;;;1.68;83.57
75051;BME280;63628;47.656;11.310;2023-01-28T02:51:39;95085.72;;;1.69;83.78
75051;BME280;63628;47.656;11.310;2023-01-28T02:54:11;95090.47;;;1.66;84.00
75051;BME280;63628;47.656;11.310;2023-01-28T02:56:46;95085.25;;;1.66;83.87
75051;BME280;63628;47.656;11.310;2023-01-28T02:59:19;95087.03;;;1.65;83.62
75051;BME280;63628;47.656;11.310;2023-01-28T03:02:06;95083.78;;;1.63;83.76
75051;BME280;63628;47.656;11.310;2023-01-28T03:04:38;95085.41;;;1.64;83.63
75051;BME280;63628;47.656;11.310;2023-01-28T03:07:08;95090.63;;;1.64;83.69
75051;BME280;63628;47.656;11.310;2023-01-28T03:09:35;95089.81;;;1.64;83.79
75051;BME280;63628;47.656;11.310;2023-01-28T03:12:04;95094.88;;;1.65;83.45
75051;BME280;63628;47.656;11.310;2023-01-28T03:14:54;95096.03;;;1.63;83.71
75051;BME280;63628;47.656;11.310;2023-01-28T03:17:43;95094.22;;;1.63;83.81
75051;BME280;63628;47.656;11.310;2023-01-28T03:20:34;95095.22;;;1.62;84.01
75051;BME280;63628;47.656;11.310;2023-01-28T03:23:26;95101.25;;;1.63;83.92
75051;BME280;63628;47.656;11.310;2023-01-28T03:26:13;95093.59;;;1.61;83.93
75051;BME280;63628;47.656;11.310;2023-01-28T03:29:03;95096.84;;;1.63;83.61
75051;BME280;63628;47.656;11.310;2023-01-28T03:31:50;95098.63;;;1.63;83.60
75051;BME280;63628;47.656;11.310;2023-01-28T03:34:37;95099.44;;;1.63;83.68
75051;BME280;63628;47.656;11.310;2023-01-28T03:37:23;95108.25;;;1.62;84.05
75051;BME280;63628;47.656;11.310;2023-01-28T03:39:52;95112.66;;;1.62;83.80
75051;BME280;63628;47.656;11.310;2023-01-28T03:42:18;95110.03;;;1.62;84.04
75051;BME280;63628;47.656;11.310;2023-01-28T03:44:45;95111.84;;;1.61;83.85
75051;BME280;63628;47.656;11.310;2023-01-28T03:47:16;95115.44;;;1.60;83.58
75051;BME280;63628;47.656;11.310;2023-01-28T03:49:46;95119.00;;;1.59;83.72
75051;BME280;63628;47.656;11.310;2023-01-28T03:52:15;95124.22;;;1.59;83.81
75051;BME280;63628;47.656;11.310;2023-01-28T03:54:44;95119.84;;;1.59;83.62
75051;BME280;63628;47.656;11.310;2023-01-28T03:57:13;95125.03;;;1.59;83.80
75051;BME280;63628;47.656;11.310;2023-01-28T03:59:40;95124.22;;;1.59;83.85
75051;BME280;63628;47.656;11.310;2023-01-28T04:02:07;95128.47;;;1.60;83.62
75051;BME280;63628;47.656;11.310;2023-01-28T04:04:37;95121.78;;;1.57;83.63
75051;BME280;63628;47.656;11.310;2023-01-28T04:07:06;95127.47;;;1.61;83.63
75051;BME280;63628;47.656;11.310;2023-01-28T04:09:36;95127.81;;;1.58;83.66
75051;BME280;63628;47.656;11.310;2023-01-28T04:12:04;95128.63;;;1.58;83.87
75051;BME280;63628;47.656;11.310;2023-01-28T04:14:31;95123.75;;;1.55;83.93
75051;BME280;63628;47.656;11.310;2023-01-28T04:16:58;95121.28;;;1.62;83.40
75051;BME280;63628;47.656;11.310;2023-01-28T04:19:26;95122.16;;;1.46;83.54
75051;BME280;63628;47.656;11.310;2023-01-28T04:21:52;95125.72;;;1.53;83.88
75051;BME280;63628;47.656;11.310;2023-01-28T04:24:21;95124.75;;;1.54;83.39
75051;BME280;63628;47.656;11.310;2023-01-28T04:26:48;95123.59;;;1.57;83.24
75051;BME280;63628;47.656;11.310;2023-01-28T04:29:14;95122.31;;;1.53;83.77
75051;BME280;63628;47.656;11.310;2023-01-28T04:31:41;95125.56;;;1.55;83.62
75051;BME280;63628;47.656;11.310;2023-01-28T04:34:07;95122.31;;;1.53;83.69
75051;BME280;63628;47.656;11.310;2023-01-28T04:36:35;95133.38;;;1.55;83.41
75051;BME280;63628;47.656;11.310;2023-01-28T04:39:02;95135.16;;;1.54;83.74
75051;BME280;63628;47.656;11.310;2023-01-28T04:41:30;95130.94;;;1.53;83.72
75051;BME280;63628;47.656;11.310;2023-01-28T04:43:56;95139.56;;;1.54;83.75
75051;BME280;63628;47.656;11.310;2023-01-28T04:46:23;95136.31;;;1.52;83.65
75051;BME280;63628;47.656;11.310;2023-01-28T04:48:50;95138.75;;;1.53;83.79
75051;BME280;63628;47.656;11.310;2023-01-28T04:51:16;95143.31;;;1.51;83.40
75051;BME280;63628;47.656;11.310;2023-01-28T04:53:43;95148.38;;;1.53;83.78
75051;BME280;63628;47.656;11.310;2023-01-28T04:56:09;95141.53;;;1.52;83.66
75051;BME280;63628;47.656;11.310;2023-01-28T04:58:37;95141.53;;;1.52;83.47
75051;BME280;63628;47.656;11.310;2023-01-28T05:01:04;95150.97;;;1.53;83.63
75051;BME280;63628;47.656;11.310;2023-01-28T05:03:30;95154.56;;;1.52;83.68
75051;BME280;63628;47.656;11.310;2023-01-28T05:05:58;95158.00;;;1.52;83.64
75051;BME280;63628;47.656;11.310;2023-01-28T05:08:24;95158.16;;;1.51;83.45
75051;BME280;63628;47.656;11.310;2023-01-28T05:10:51;95160.78;;;1.51;83.32
75051;BME280;63628;47.656;11.310;2023-01-28T05:13:17;95157.34;;;1.50;83.42
75051;BME280;63628;47.656;11.310;2023-01-28T05:15:50;95164.19;;;1.51;83.65
75051;BME280;63628;47.656;11.310;2023-01-28T05:18:18;95168.59;;;1.51;83.33
75051;BME280;63628;47.656;11.310;2023-01-28T05:20:45;95162.72;;;1.49;83.63
75051;BME280;63628;47.656;11.310;2023-01-28T05:23:11;95166.97;;;1.50;83.36
75051;BME280;63628;47.656;11.310;2023-01-28T05:25:38;95175.44;;;1.52;83.58
75051;BME280;63628;47.656;11.310;2023-01-28T05:28:04;95172.81;;;1.52;83.32
75051;BME280;63628;47.656;11.310;2023-01-28T05:30:31;95168.94;;;1.48;83.29
75051;BME280;63628;47.656;11.310;2023-01-28T05:32:59;95168.75;;;1.49;83.52
75051;BME280;63628;47.656;11.310;2023-01-28T05:35:25;95169.75;;;1.48;83.43
75051;BME280;63628;47.656;11.310;2023-01-28T05:37:52;95178.38;;;1.49;83.36
75051;BME280;63628;47.656;11.310;2023-01-28T05:40:19;95167.94;;;1.49;83.29
75051;BME280;63628;47.656;11.310;2023-01-28T05:42:45;95176.78;;;1.32;81.40
75051;BME280;63628;47.656;11.310;2023-01-28T05:45:12;95181.78;;;1.49;83.38
75051;BME280;63628;47.656;11.310;2023-01-28T05:47:39;95182.31;;;1.20;83.81
75051;BME280;63628;47.656;11.310;2023-01-28T05:50:09;95185.41;;;1.40;83.80
75051;BME280;63628;47.656;11.310;2023-01-28T05:52:38;95186.53;;;1.46;83.46
75051;BME280;63628;47.656;11.310;2023-01-28T05:55:06;95202.19;;;1.46;83.26
75051;BME280;63628;47.656;11.310;2023-01-28T05:57:33;95199.72;;;1.44;83.74
75051;BME280;63628;47.656;11.310;2023-01-28T05:59:59;95201.84;;;1.49;83.42
75051;BME280;63628;47.656;11.310;2023-01-28T06:02:26;95203.81;;;1.47;83.08
75051;BME280;63628;47.656;11.310;2023-01-28T06:04:53;95204.78;;;1.46;83.04
75051;BME280;63628;47.656;11.310;2023-01-28T06:07:21;95201.34;;;1.45;83.29
75051;BME280;63628;47.656;11.310;2023-01-28T06:09:49;95201.69;;;1.42;83.49
75051;BME280;63628;47.656;11.310;2023-01-28T06:12:15;95198.09;;;1.43;83.18
75051;BME280;63628;47.656;11.310;2023-01-28T06:14:42;95210.16;;;1.44;83.37
75051;BME280;63628;47.656;11.310;2023-01-28T06:17:09;95215.53;;;1.43;83.43
75051;BME280;63628;47.656;11.310;2023-01-28T06:19:35;95213.59;;;1.45;83.17
75051;BME280;63628;47.656;11.310;2023-01-28T06:22:02;95214.41;;;1.45;83.27
75051;BME280;63628;47.656;11.310;2023-01-28T06:24:30;95218.78;;;1.45;83.50
75051;BME280;63628;47.656;11.310;2023-01-28T06:26:56;95216.19;;;1.45;83.47
75051;BME280;63628;47.656;11.310;2023-01-28T06:29:23;95220.59;;;1.44;83.33
75051;BME280;63628;47.656;11.310;2023-01-28T06:31:50;95235.25;;;1.45;83.38
75051;BME280;63628;47.656;11.310;2023-01-28T06:34:16;95233.97;;;1.41;83.22
75051;BME280;63628;47.656;11.310;2023-01-28T06:36:43;95228.75;;;1.41;83.57
75051;BME280;63628;47.656;11.310;2023-01-28T06:39:10;95225.16;;;1.42;83.50
75051;BME280;63628;47.656;11.310;2023-01-28T06:41:38;95229.56;;;1.42;83.56
75051;BME280;63628;47.656;11.310;2023-01-28T06:44:05;95234.78;;;1.42;83.22
75051;BME280;63628;47.656;11.310;2023-01-28T06:46:31;95236.41;;;1.43;83.42
75051;BME280;63628;47.656;11.310;2023-01-28T06:48:58;95240.00;;;1.42;83.14
75051;BME280;63628;47.656;11.310;2023-01-28T06:51:24;95239.16;;;1.41;83.54
75051;BME280;63628;47.656;11.310;2023-01-28T06:53:51;95238.34;;;1.41;83.23
75051;BME280;63628;47.656;11.310;2023-01-28T06:56:17;95240.16;;;1.40;83.17
75051;BME280;63628;47.656;11.310;2023-01-28T06:58:45;95238.53;;;1.39;83.74
75051;BME280;63628;47.656;11.310;2023-01-28T07:01:12;95237.72;;;1.39;83.19
75051;BME280;63628;47.656;11.310;2023-01-28T07:03:39;95236.72;;;1.40;83.68
75051;BME280;63628;47.656;11.310;2023-01-28T07:06:05;95238.53;;;1.39;83.56
75051;BME280;63628;47.656;11.310;2023-01-28T07:08:32;95242.09;;;1.38;83.36
75051;BME280;63628;47.656;11.310;2023-01-28T07:10:59;95239.34;;;1.40;83.40
75051;BME280;63628;47.656;11.310;2023-01-28T07:13:26;95237.72;;;1.39;83.29
75051;BME280;63628;47.656;11.310;2023-01-28T07:15:54;95248.13;;;1.39;83.33
75051;BME280;63628;47.656;11.310;2023-01-28T07:18:20;95242.09;;;1.38;83.25
75051;BME280;63628;47.656;11.310;2023-01-28T07:20:47;95248.13;;;1.39;83.22
75051;BME280;63628;47.656;11.310;2023-01-28T07:23:14;95243.09;;;1.37;83.50
75051;BME280;63628;47.656;11.310;2023-01-28T07:25:40;95245.38;;;1.40;83.20
75051;BME280;63628;47.656;11.310;2023-01-28T07:28:08;95241.28;;;1.38;83.16
75051;BME280;63628;47.656;11.310;2023-01-28T07:30:35;95250.56;;;1.40;83.16
75051;BME280;63628;47.656;11.310;2023-01-28T07:33:03;95256.59;;;1.41;83.06
75051;BME280;63628;47.656;11.310;2023-01-28T07:35:30;95255.16;;;1.38;83.04
75051;BME280;63628;47.656;11.310;2023-01-28T07:37:59;95262.31;;;1.36;83.38
75051;BME280;63628;47.656;11.310;2023-01-28T07:40:27;95263.94;;;1.37;83.36
75051;BME280;63628;47.656;11.310;2023-01-28T07:42:54;95263.13;;;1.37;83.25
75051;BME280;63628;47.656;11.310;2023-01-28T07:45:23;95264.09;;;1.36;83.25
75051;BME280;63628;47.656;11.310;2023-01-28T07:47:54;95265.75;;;1.37;83.02
75051;BME280;63628;47.656;11.310;2023-01-28T07:50:24;95269.31;;;1.36;82.94
75051;BME280;63628;47.656;11.310;2023-01-28T07:52:51;95270.13;;;1.36;83.40
75051;BME280;63628;47.656;11.310;2023-01-28T07:55:17;95271.13;;;1.35;83.58
75051;BME280;63628;47.656;11.310;2023-01-28T07:57:49;95274.69;;;1.34;83.08
75051;BME280;63628;47.656;11.310;2023-01-28T08:00:16;95282.53;;;1.34;83.29
75051;BME280;63628;47.656;11.310;2023-01-28T08:02:43;95289.53;;;1.34;83.17
75051;BME280;63628;47.656;11.310;2023-01-28T08:05:20;95289.38;;;1.35;83.42
75051;BME280;63628;47.656;11.310;2023-01-28T08:07:48;95298.97;;;1.35;83.41
75051;BME280;63628;47.656;11.310;2023-01-28T08:10:15;95299.59;;;1.20;83.02
75051;BME280;63628;47.656;11.310;2023-01-28T08:12:50;95303.53;;;1.33;83.67
75051;BME280;63628;47.656;11.310;2023-01-28T08:15:16;95299.59;;;1.20;82.68
75051;BME280;63628;47.656;11.310;2023-01-28T08:17:43;95303.53;;;1.33;83.86
75051;BME280;63628;47.656;11.310;2023-01-28T08:20:10;95310.22;;;1.35;83.13
75051;BME280;63628;47.656;11.310;2023-01-28T08:22:37;95320.22;;;0.73;77.65
75051;BME280;63628;47.656;11.310;2023-01-28T08:25:05;95311.97;;;1.18;83.56
75051;BME280;63628;47.656;11.310;2023-01-28T08:27:32;95316.50;;;0.92;81.74
75051;BME280;63628;47.656;11.310;2023-01-28T08:29:58;95321.75;;;1.24;83.29
75051;BME280;63628;47.656;11.310;2023-01-28T08:32:25;95324.84;;;1.12;82.24
75051;BME280;63628;47.656;11.310;2023-01-28T08:34:52;95331.69;;;1.13;81.65
75051;BME280;63628;47.656;11.310;2023-01-28T08:37:18;95327.78;;;1.25;83.63
75051;BME280;63628;47.656;11.310;2023-01-28T08:39:45;95325.13;;;0.42;81.65
75051;BME280;63628;47.656;11.310;2023-01-28T08:42:13;95324.47;;;-0.20;78.14
75051;BME280;63628;47.656;11.310;2023-01-28T08:44:39;95334.91;;;-0.38;81.69
75051;BME280;63628;47.656;11.310;2023-01-28T08:47:06;95338.66;;;0.46;81.82
75051;BME280;63628;47.656;11.310;2023-01-28T08:49:33;95337.56;;;0.22;83.63
75051;BME280;63628;47.656;11.310;2023-01-28T08:51:59;95337.78;;;0.37;80.50
75051;BME280;63628;47.656;11.310;2023-01-28T08:54:26;95345.97;;;0.84;84.51
75051;BME280;63628;47.656;11.310;2023-01-28T08:56:52;95345.03;;;1.10;83.73
75051;BME280;63628;47.656;11.310;2023-01-28T08:59:20;95340.81;;;1.17;83.57
75051;BME280;63628;47.656;11.310;2023-01-28T09:01:47;95337.06;;;1.19;83.22
75051;BME280;63628;47.656;11.310;2023-01-28T09:04:13;95337.72;;;1.21;83.47
75051;BME280;63628;47.656;11.310;2023-01-28T09:06:40;95349.75;;;1.14;83.24
75051;BME280;63628;47.656;11.310;2023-01-28T09:09:06;95344.53;;;1.14;83.72
75051;BME280;63628;47.656;11.310;2023-01-28T09:11:33;95351.88;;;1.11;82.64
75051;BME280;63628;47.656;11.310;2023-01-28T09:14:00;95349.94;;;1.21;83.52
75051;BME280;63628;47.656;11.310;2023-01-28T09:16:28;95345.53;;;1.21;83.18
75051;BME280;63628;47.656;11.310;2023-01-28T09:18:54;95349.25;;;1.11;81.13
75051;BME280;63628;47.656;11.310;2023-01-28T09:21:21;95347.97;;;1.23;83.05
75051;BME280;63628;47.656;11.310;2023-01-28T09:23:48;95350.59;;;1.23;82.79
75051;BME280;63628;47.656;11.310;2023-01-28T09:26:14;95346.84;;;1.25;83.38
75051;BME280;63628;47.656;11.310;2023-01-28T09:28:41;95358.72;;;1.28;83.36
75051;BME280;63628;47.656;11.310;2023-01-28T09:31:09;95360.69;;;1.26;83.27
75051;BME280;63628;47.656;11.310;2023-01-28T09:33:39;95362.31;;;1.27;83.44
75051;BME280;63628;47.656;11.310;2023-01-28T09:36:06;95361.66;;;1.25;83.18
75051;BME280;63628;47.656;11.310;2023-01-28T09:38:35;95360.03;;;1.24;83.27
75051;BME280;63628;47.656;11.310;2023-01-28T09:41:10;95354.97;;;1.14;81.55
75051;BME280;63628;47.656;11.310;2023-01-28T09:43:51;95356.63;;;1.23;83.16
75051;BME280;63628;47.656;11.310;2023-01-28T09:46:19;95355.47;;;1.26;83.56
75051;BME280;63628;47.656;11.310;2023-01-28T09:48:50;95358.91;;;1.26;83.47
75051;BME280;63628;47.656;11.310;2023-01-28T09:51:27;95356.94;;;1.28;83.60
75051;BME280;63628;47.656;11.310;2023-01-28T09:53:56;95359.41;;;1.30;83.30
75051;BME280;63628;47.656;11.310;2023-01-28T09:56:27;95363.94;;;1.28;83.44
75051;BME280;63628;47.656;11.310;2023-01-28T09:58:56;95369.16;;;1.28;83.33
75051;BME280;63628;47.656;11.310;2023-01-28T10:01:37;95360.53;;;1.27;83.23
75051;BME280;63628;47.656;11.310;2023-01-28T10:04:17;95354.50;;;1.27;83.69
75051;BME280;63628;47.656;11.310;2023-01-28T10:06:56;95351.88;;;1.27;83.19
75051;BME280;63628;47.656;11.310;2023-01-28T10:09:34;95340.31;;;1.30;83.18
75051;BME280;63628;47.656;11.310;2023-01-28T10:15:42;95336.09;;;1.28;83.29
75051;BME280;63628;47.656;11.310;2023-01-28T10:18:11;95329.25;;;1.27;83.48
75051;BME280;63628;47.656;11.310;2023-01-28T10:20:47;95328.28;;;1.28;83.27
75051;BME280;63628;47.656;11.310;2023-01-28T10:23:19;95311.81;;;1.28;83.34
75051;BME280;63628;47.656;11.310;2023-01-28T10:25:47;95322.25;;;1.28;83.65
75051;BME280;63628;47.656;11.310;2023-01-28T10:28:18;95314.41;;;1.28;83.10
75051;BME280;63628;47.656;11.310;2023-01-28T10:30:47;95317.84;;;1.28;82.98
75051;BME280;63628;47.656;11.310;2023-01-28T10:33:18;95330.75;;;1.30;83.55
75051;BME280;63628;47.656;11.310;2023-01-28T10:35:47;95319.47;;;1.30;83.11
75051;BME280;63628;47.656;11.310;2023-01-28T10:38:16;95325.53;;;1.30;83.22
75051;BME280;63628;47.656;11.310;2023-01-28T10:40:45;95323.88;;;1.29;83.45
75051;BME280;63628;47.656;11.310;2023-01-28T10:43:15;95334.00;;;1.32;83.10
75051;BME280;63628;47.656;11.310;2023-01-28T10:45:48;95329.25;;;1.27;82.57
75051;BME280;63628;47.656;11.310;2023-01-28T10:48:22;95333.00;;;1.25;82.92
75051;BME280;63628;47.656;11.310;2023-01-28T10:50:51;95338.59;;;-0.22;78.50
75051;BME280;63628;47.656;11.310;2023-01-28T10:53:18;95340.53;;;-0.24;79.61
75051;BME280;63628;47.656;11.310;2023-01-28T10:55:48;95338.03;;;0.18;80.81
75051;BME280;63628;47.656;11.310;2023-01-28T10:58:18;95338.50;;;0.98;83.95
75051;BME280;63628;47.656;11.310;2023-01-28T11:00:45;95338.50;;;0.98;81.57
75051;BME280;63628;47.656;11.310;2023-01-28T11:03:17;95336.97;;;0.37;78.66
75051;BME280;63628;47.656;11.310;2023-01-28T11:05:51;95339.31;;;0.14;78.68
75051;BME280;63628;47.656;11.310;2023-01-28T11:08:19;95336.84;;;0.46;82.03
75051;BME280;63628;47.656;11.310;2023-01-28T11:10:46;95335.19;;;0.79;83.46
75051;BME280;63628;47.656;11.310;2023-01-28T11:13:17;95332.66;;;1.04;83.94
75051;BME280;63628;47.656;11.310;2023-01-28T11:15:48;95336.41;;;1.09;83.57
75051;BME280;63628;47.656;11.310;2023-01-28T11:18:18;95332.34;;;1.15;83.14
75051;BME280;63628;47.656;11.310;2023-01-28T11:20:53;95323.53;;;1.16;83.16
75051;BME280;63628;47.656;11.310;2023-01-28T11:23:24;95318.81;;;1.19;83.47
75051;BME280;63628;47.656;11.310;2023-01-28T11:26:05;95326.63;;;1.19;83.59
75051;BME280;63628;47.656;11.310;2023-01-28T11:28:32;95328.09;;;1.22;82.96
75051;BME280;63628;47.656;11.310;2023-01-28T11:31:01;95320.59;;;1.19;83.76
75051;BME280;63628;47.656;11.310;2023-01-28T11:33:32;95324.19;;;1.18;83.26
75051;BME280;63628;47.656;11.310;2023-01-28T11:36:11;95315.06;;;1.14;82.30
75051;BME280;63628;47.656;11.310;2023-01-28T11:38:47;95312.63;;;1.12;82.55
75051;BME280;63628;47.656;11.310;2023-01-28T11:41:15;95310.19;;;1.27;80.28
75051;BME280;63628;47.656;11.310;2023-01-28T11:43:42;95321.72;;;1.00;77.86
75051;BME280;63628;47.656;11.310;2023-01-28T11:46:30;95315.06;;;1.14;79.22
75051;BME280;63628;47.656;11.310;2023-01-28T11:49:08;95313.63;;;1.68;76.97
75051;BME280;63628;47.656;11.310;2023-01-28T11:51:45;95306.59;;;1.77;75.70
75051;BME280;63628;47.656;11.310;2023-01-28T11:54:24;95316.06;;;1.53;74.36
75051;BME280;63628;47.656;11.310;2023-01-28T11:57:08;95313.44;;;1.29;80.44
75051;BME280;63628;47.656;11.310;2023-01-28T12:03:01;95313.44;;;1.21;81.64
75051;BME280;63628;47.656;11.310;2023-01-28T12:05:45;95305.47;;;1.14;82.56
75051;BME280;63628;47.656;11.310;2023-01-28T12:08:20;95314.25;;;1.13;82.01
75051;BME280;63628;47.656;11.310;2023-01-28T12:10:59;95311.97;;;1.10;82.65
75051;BME280;63628;47.656;11.310;2023-01-28T12:13:40;95315.72;;;1.08;82.01
75051;BME280;63628;47.656;11.310;2023-01-28T12:16:37;95309.53;;;1.17;82.07
75051;BME280;63628;47.656;11.310;2023-01-28T12:19:16;95309.19;;;1.12;79.34
75051;BME280;63628;47.656;11.310;2023-01-28T12:22:07;95314.41;;;1.20;81.22
75051;BME280;63628;47.656;11.310;2023-01-28T12:24:50;95315.56;;;1.17;81.59
75051;BME280;63628;47.656;11.310;2023-01-28T12:27:32;95309.03;;;1.13;81.73
75051;BME280;63628;47.656;11.310;2023-01-28T12:30:08;95319.78;;;1.10;82.44
75051;BME280;63628;47.656;11.310;2023-01-28T12:32:49;95316.03;;;1.13;79.57
75051;BME280;63628;47.656;11.310;2023-01-28T12:35:30;95319.97;;;1.25;79.13
75051;BME280;63628;47.656;11.310;2023-01-28T12:38:07;95313.44;;;1.21;75.15
75051;BME280;63628;47.656;11.310;2023-01-28T12:40:46;95318.53;;;1.31;78.82
75051;BME280;63628;47.656;11.310;2023-01-28T12:43:21;95318.81;;;1.27;80.16
75051;BME280;63628;47.656;11.310;2023-01-28T12:45:53;95323.53;;;1.16;81.37
75051;BME280;63628;47.656;11.310;2023-01-28T12:48:25;95318.81;;;1.11;81.82
75051;BME280;63628;47.656;11.310;2023-01-28T12:50:57;95317.03;;;1.12;81.71
75051;BME280;63628;47.656;11.310;2023-01-28T12:53:30;95317.66;;;1.14;81.57
75051;BME280;63628;47.656;11.310;2023-01-28T12:56:04;95316.69;;;1.15;82.19
75051;BME280;63628;47.656;11.310;2023-01-28T12:58:38;95320.13;;;1.15;81.64
75051;BME280;63628;47.656;11.310;2023-01-28T13:01:08;95322.72;;;1.15;81.89
75051;BME280;63628;47.656;11.310;2023-01-28T13:03:40;95327.63;;;1.18;81.82
75051;BME280;63628;47.656;11.310;2023-01-28T13:06:12;95322.41;;;1.18;81.76
75051;BME280;63628;47.656;11.310;2023-01-28T13:08:40;95324.19;;;1.18;82.09
75051;BME280;63628;47.656;11.310;2023-01-28T13:11:12;95327.63;;;1.18;82.05
75051;BME280;63628;47.656;11.310;2023-01-28T13:13:41;95326.31;;;1.22;81.71
75051;BME280;63628;47.656;11.310;2023-01-28T13:16:10;95331.03;;;1.19;82.04
75051;BME280;63628;47.656;11.310;2023-01-28T13:18:43;95324.19;;;1.18;82.20
75051;BME280;63628;47.656;11.310;2023-01-28T13:21:16;95334.63;;;1.18;81.95
75051;BME280;63628;47.656;11.310;2023-01-28T13:24:17;95338.34;;;1.15;82.16
75051;BME280;63628;47.656;11.310;2023-01-28T13:26:48;95338.50;;;1.06;81.76